createdAt,value
2022-12-31T00:01:56.905Z,1.00
2022-12-31T00:04:58.531Z,0.95
2022-12-31T00:08:01.560Z,1.10
2022-12-31T00:11:03.124Z,1.02
2022-12-31T00:14:05.827Z,1.27
2022-12-31T00:17:07.582Z,0.90
2022-12-31T00:20:09.509Z,0.80
2022-12-31T00:23:11.626Z,1.10
2022-12-31T00:26:16.295Z,1.00
2022-12-31T00:29:17.821Z,0.97
2022-12-31T00:32:19.377Z,1.10
2022-12-31T00:35:20.981Z,0.90
2022-12-31T00:38:22.508Z,0.90
2022-12-31T00:41:25.578Z,0.85
2022-12-31T00:44:27.179Z,0.82
2022-12-31T00:47:28.714Z,0.80
2022-12-31T00:50:30.246Z,0.90
2022-12-31T00:53:31.812Z,0.90
2022-12-31T00:56:33.355Z,1.00
2022-12-31T00:59:34.903Z,0.80
2022-12-31T01:02:36.569Z,0.90
2022-12-31T01:05:38.370Z,0.90
2022-12-31T01:08:40.083Z,0.80
2022-12-31T01:11:42.036Z,0.90
2022-12-31T01:14:43.590Z,0.77
2022-12-31T01:17:45.080Z,1.08
2022-12-31T01:20:46.623Z,1.40
2022-12-31T01:23:48.330Z,1.40
2022-12-31T01:26:51.188Z,1.70
2022-12-31T01:29:52.710Z,2.23
2022-12-31T01:32:54.227Z,2.80
2022-12-31T01:35:55.765Z,3.38
2022-12-31T01:38:59.463Z,1.70
2022-12-31T01:42:01.006Z,1.63
2022-12-31T01:45:02.691Z,1.70
2022-12-31T01:48:04.314Z,1.90
2022-12-31T01:51:09.549Z,1.40
2022-12-31T01:54:13.779Z,1.00
2022-12-31T01:57:16.231Z,1.10
2022-12-31T02:00:17.900Z,0.90
2022-12-31T02:03:22.423Z,1.10
2022-12-31T02:06:35.097Z,1.20
2022-12-31T02:09:38.474Z,1.20
2022-12-31T02:12:40.299Z,1.20
2022-12-31T02:16:00.165Z,1.10
2022-12-31T02:19:35.935Z,1.33
2022-12-31T02:23:03.822Z,1.40
2022-12-31T02:26:34.384Z,1.00
2022-12-31T02:29:47.821Z,1.27
2022-12-31T02:32:52.454Z,1.40
2022-12-31T02:35:58.426Z,1.20
2022-12-31T02:39:03.023Z,1.08
2022-12-31T02:42:04.674Z,1.30
2022-12-31T02:45:08.056Z,1.30
2022-12-31T02:48:24.770Z,1.30
2022-12-31T02:51:57.360Z,1.23
2022-12-31T02:55:25.151Z,1.10
2022-12-31T02:58:48.036Z,1.30
2022-12-31T03:02:13.976Z,1.17
2022-12-31T03:05:19.415Z,1.55
2022-12-31T03:08:23.178Z,1.00
2022-12-31T03:11:43.453Z,1.20
2022-12-31T03:14:45.128Z,1.30
2022-12-31T03:18:01.840Z,1.00
2022-12-31T03:21:22.032Z,1.15
2022-12-31T03:24:42.218Z,1.20
2022-12-31T03:27:45.139Z,1.33
2022-12-31T03:30:50.455Z,1.20
2022-12-31T03:33:52.009Z,1.95
2022-12-31T03:36:53.560Z,1.50
2022-12-31T03:39:55.128Z,1.60
2022-12-31T03:42:56.941Z,1.30
2022-12-31T03:45:59.787Z,1.00
2022-12-31T03:49:01.477Z,0.90
2022-12-31T03:52:03.546Z,0.80
2022-12-31T03:55:05.821Z,0.75
2022-12-31T03:58:07.387Z,0.80
2022-12-31T04:01:08.993Z,1.00
2022-12-31T04:04:10.551Z,0.80
2022-12-31T04:07:12.119Z,0.90
2022-12-31T04:10:16.121Z,0.80
2022-12-31T04:13:17.663Z,0.90
2022-12-31T04:16:19.266Z,1.00
2022-12-31T04:19:20.891Z,1.10
2022-12-31T04:22:22.455Z,1.00
2022-12-31T04:25:24.004Z,0.90
2022-12-31T04:28:25.777Z,0.80
2022-12-31T04:31:27.588Z,0.90
2022-12-31T04:34:29.157Z,1.00
2022-12-31T04:37:30.725Z,0.90
2022-12-31T04:40:32.328Z,0.85
2022-12-31T04:43:33.824Z,1.00
2022-12-31T04:46:35.924Z,1.00
2022-12-31T04:49:37.460Z,0.90
2022-12-31T04:52:42.904Z,0.85
2022-12-31T04:55:46.107Z,0.80
2022-12-31T04:58:47.819Z,0.73
2022-12-31T05:01:49.464Z,0.93
2022-12-31T05:04:51.018Z,0.75
2022-12-31T05:07:52.590Z,0.77
2022-12-31T05:10:54.139Z,0.60
2022-12-31T05:13:57.378Z,0.70
2022-12-31T05:16:59.360Z,0.60
2022-12-31T05:20:00.950Z,0.95
2022-12-31T05:23:02.557Z,0.70
2022-12-31T05:26:04.200Z,0.70
2022-12-31T05:29:05.799Z,1.00
2022-12-31T05:32:07.328Z,0.77
2022-12-31T05:35:09.355Z,0.60
2022-12-31T05:38:11.113Z,0.77
2022-12-31T05:41:12.651Z,0.50
2022-12-31T05:44:14.322Z,0.60
2022-12-31T05:47:16.475Z,0.60
2022-12-31T05:50:18.164Z,0.60
2022-12-31T05:53:19.714Z,0.60
2022-12-31T05:56:21.281Z,0.63
2022-12-31T05:59:22.834Z,0.60
2022-12-31T06:02:24.676Z,0.63
2022-12-31T06:05:26.790Z,0.70
2022-12-31T06:08:28.381Z,0.70
2022-12-31T06:11:30.223Z,2.40
2022-12-31T06:14:32.019Z,0.70
2022-12-31T06:17:33.582Z,0.93
2022-12-31T06:20:38.786Z,1.02
2022-12-31T06:23:40.925Z,0.80
2022-12-31T06:26:42.833Z,0.90
2022-12-31T06:29:45.728Z,0.90
2022-12-31T06:32:47.298Z,0.80
2022-12-31T06:35:48.889Z,0.80
2022-12-31T06:38:50.644Z,0.90
2022-12-31T06:41:52.170Z,0.90
2022-12-31T06:44:53.746Z,1.60
2022-12-31T06:47:55.278Z,1.00
2022-12-31T06:50:57.694Z,0.80
2022-12-31T06:53:59.228Z,0.70
2022-12-31T06:57:01.066Z,0.77
2022-12-31T07:00:03.021Z,0.70
2022-12-31T07:03:26.087Z,0.65
2022-12-31T07:06:37.314Z,0.80
2022-12-31T07:10:14.400Z,0.80
2022-12-31T07:13:23.479Z,0.70
2022-12-31T07:16:42.246Z,0.77
2022-12-31T07:19:57.713Z,0.70
2022-12-31T07:22:59.816Z,0.88
2022-12-31T07:26:33.881Z,0.80
2022-12-31T07:30:09.537Z,0.90
2022-12-31T07:33:30.046Z,0.60
2022-12-31T07:36:37.646Z,0.60
2022-12-31T07:39:51.478Z,0.60
2022-12-31T07:43:06.016Z,0.60
2022-12-31T07:46:19.263Z,0.60
2022-12-31T07:49:21.104Z,0.65
2022-12-31T07:52:23.044Z,0.65
2022-12-31T07:55:24.644Z,0.70
2022-12-31T07:58:50.491Z,0.70
2022-12-31T08:02:04.105Z,0.80
2022-12-31T08:05:18.725Z,0.70
2022-12-31T08:08:46.588Z,0.50
2022-12-31T08:11:56.704Z,0.80
2022-12-31T08:14:58.418Z,1.00
2022-12-31T08:18:00.567Z,1.43
2022-12-31T08:21:17.256Z,1.60
2022-12-31T08:24:57.032Z,1.10
2022-12-31T08:28:11.544Z,1.30
2022-12-31T08:31:36.018Z,1.20
2022-12-31T08:35:06.514Z,1.20
2022-12-31T08:38:23.404Z,1.00
2022-12-31T08:41:43.056Z,1.20
2022-12-31T08:45:12.383Z,0.90
2022-12-31T08:48:43.378Z,1.70
2022-12-31T08:51:45.642Z,1.15
2022-12-31T08:54:47.960Z,1.25
2022-12-31T08:57:55.573Z,1.45
2022-12-31T09:00:59.424Z,1.20
2022-12-31T09:04:30.047Z,1.20
2022-12-31T09:07:56.525Z,1.08
2022-12-31T09:11:20.895Z,1.23
2022-12-31T09:14:45.670Z,1.43
2022-12-31T09:17:50.427Z,1.65
2022-12-31T09:20:52.174Z,1.58
2022-12-31T09:23:54.147Z,1.30
2022-12-31T09:27:16.114Z,1.35
2022-12-31T09:30:18.790Z,1.30
2022-12-31T09:33:35.567Z,1.35
2022-12-31T09:36:45.037Z,2.00
2022-12-31T09:39:48.390Z,1.48
2022-12-31T09:43:27.908Z,1.30
2022-12-31T09:46:32.689Z,1.20
2022-12-31T09:49:39.943Z,1.00
2022-12-31T09:52:50.512Z,1.30
2022-12-31T09:56:02.219Z,1.30
2022-12-31T09:59:13.532Z,1.48
2022-12-31T10:02:37.127Z,1.40
2022-12-31T10:06:04.436Z,1.40
2022-12-31T10:09:31.765Z,1.27
2022-12-31T10:12:47.165Z,1.20
2022-12-31T10:16:04.104Z,1.07
2022-12-31T10:19:27.390Z,1.20
2022-12-31T10:23:15.166Z,1.00
2022-12-31T10:26:35.030Z,1.00
2022-12-31T10:29:45.646Z,1.10
2022-12-31T10:33:06.344Z,0.85
2022-12-31T10:36:28.590Z,1.20
2022-12-31T10:39:48.361Z,1.10
2022-12-31T10:42:56.032Z,1.20
2022-12-31T10:46:39.749Z,1.20
2022-12-31T10:49:59.951Z,1.08
2022-12-31T10:53:11.771Z,1.37
2022-12-31T10:56:37.867Z,1.27
2022-12-31T11:00:17.393Z,1.40
2022-12-31T11:03:45.823Z,1.10
2022-12-31T11:07:24.073Z,1.00
2022-12-31T11:10:44.009Z,1.00
2022-12-31T11:13:55.275Z,0.90
2022-12-31T11:17:20.585Z,1.00
2022-12-31T11:20:37.001Z,0.85
2022-12-31T11:23:44.562Z,1.10
2022-12-31T11:26:46.529Z,0.98
2022-12-31T11:29:57.020Z,0.90
2022-12-31T11:33:04.870Z,0.80
2022-12-31T11:36:38.598Z,0.80
2022-12-31T11:39:52.553Z,0.90
2022-12-31T11:43:16.053Z,0.70
2022-12-31T11:46:39.519Z,0.70
2022-12-31T11:49:56.447Z,0.80
2022-12-31T11:53:23.974Z,0.80
2022-12-31T11:56:33.999Z,0.70
2022-12-31T11:59:35.595Z,0.90
2022-12-31T12:02:45.987Z,0.70
2022-12-31T12:05:47.980Z,0.80
2022-12-31T12:08:50.647Z,0.70
2022-12-31T12:12:01.352Z,0.80
2022-12-31T12:15:07.826Z,1.27
2022-12-31T12:18:23.146Z,1.40
2022-12-31T12:21:25.960Z,2.70
2022-12-31T12:24:29.975Z,1.77
2022-12-31T12:27:35.535Z,1.38
2022-12-31T12:30:38.999Z,1.20
2022-12-31T12:33:43.370Z,1.00
2022-12-31T12:36:48.446Z,1.90
2022-12-31T12:40:22.139Z,1.60
2022-12-31T12:43:30.437Z,2.30
2022-12-31T12:46:36.943Z,2.85
2022-12-31T12:49:40.564Z,2.40
2022-12-31T12:53:12.837Z,2.30
2022-12-31T12:56:34.127Z,2.00
2022-12-31T12:59:57.559Z,2.03
2022-12-31T13:03:08.607Z,2.37
2022-12-31T13:06:25.149Z,2.55
2022-12-31T13:09:46.365Z,1.80
2022-12-31T13:16:54.749Z,1.70
2022-12-31T13:20:13.070Z,3.50
2022-12-31T13:23:39.322Z,2.17
2022-12-31T13:27:17.255Z,3.08
2022-12-31T13:30:22.249Z,2.10
2022-12-31T13:33:28.273Z,2.00
2022-12-31T13:36:32.949Z,2.10
2022-12-31T13:39:40.885Z,2.17
2022-12-31T13:43:03.790Z,2.75
2022-12-31T13:46:32.253Z,2.60
2022-12-31T13:49:43.076Z,1.70
2022-12-31T13:52:50.872Z,2.10
2022-12-31T13:55:59.634Z,1.40
2022-12-31T13:59:19.747Z,2.35
2022-12-31T14:03:05.789Z,3.30
2022-12-31T14:06:17.673Z,3.20
2022-12-31T14:09:27.748Z,2.97
2022-12-31T14:12:50.150Z,3.00
2022-12-31T14:16:04.461Z,2.40
2022-12-31T14:19:34.202Z,2.13
2022-12-31T14:22:56.446Z,2.80
2022-12-31T14:26:04.486Z,2.40
2022-12-31T14:29:20.977Z,2.92
2022-12-31T14:32:39.666Z,3.20
2022-12-31T14:36:10.833Z,4.25
2022-12-31T14:39:29.249Z,4.50
2022-12-31T14:43:02.360Z,4.50
2022-12-31T14:46:30.386Z,4.63
2022-12-31T14:49:50.413Z,4.10
2022-12-31T14:52:59.567Z,4.10
2022-12-31T14:56:04.552Z,3.45
2022-12-31T14:59:25.046Z,3.75
2022-12-31T15:02:34.765Z,4.00
2022-12-31T15:05:56.815Z,4.95
2022-12-31T15:09:11.000Z,4.47
2022-12-31T15:12:34.077Z,5.70
2022-12-31T15:16:09.434Z,6.35
2022-12-31T15:19:54.090Z,5.90
2022-12-31T15:22:56.355Z,6.70
2022-12-31T15:26:00.739Z,5.35
2022-12-31T15:29:21.502Z,4.97
2022-12-31T15:32:36.854Z,4.45
2022-12-31T15:35:54.443Z,3.78
2022-12-31T15:39:11.317Z,4.80
2022-12-31T15:42:49.808Z,4.50
2022-12-31T15:45:56.504Z,3.70
2022-12-31T15:49:07.858Z,2.65
2022-12-31T15:52:25.580Z,2.80
2022-12-31T15:55:33.124Z,2.70
2022-12-31T15:58:37.031Z,2.13
2022-12-31T16:01:41.241Z,2.60
2022-12-31T16:04:44.755Z,3.00
2022-12-31T16:07:47.193Z,3.08
2022-12-31T16:10:49.049Z,3.80
2022-12-31T16:13:54.421Z,4.78
2022-12-31T16:16:59.745Z,5.00
2022-12-31T16:20:20.048Z,5.10
2022-12-31T16:23:27.496Z,4.70
2022-12-31T16:26:42.300Z,4.22
2022-12-31T16:29:53.999Z,3.85
2022-12-31T16:33:02.878Z,3.90
2022-12-31T16:36:05.241Z,4.57
2022-12-31T16:39:24.451Z,5.40
2022-12-31T16:42:28.687Z,5.72
2022-12-31T16:45:36.311Z,6.97
2022-12-31T16:48:38.576Z,9.23
2022-12-31T16:51:40.468Z,11.05
2022-12-31T16:54:46.779Z,13.43
2022-12-31T16:57:56.808Z,11.23
2022-12-31T17:01:20.656Z,12.57
2022-12-31T17:04:24.510Z,12.00
2022-12-31T17:07:30.161Z,10.10
2022-12-31T17:10:36.633Z,12.48
2022-12-31T17:13:38.316Z,11.77
2022-12-31T17:16:57.753Z,12.47
2022-12-31T17:20:09.089Z,11.75
2022-12-31T17:23:22.692Z,18.65
2022-12-31T17:32:01.560Z,12.93
2022-12-31T17:35:23.360Z,12.07
2022-12-31T17:38:31.047Z,11.85
2022-12-31T17:41:32.571Z,11.13
2022-12-31T17:44:37.314Z,11.43
2022-12-31T17:47:41.315Z,11.27
2022-12-31T17:50:50.644Z,12.27
2022-12-31T17:53:52.287Z,15.27
2022-12-31T17:56:54.068Z,15.50
2022-12-31T17:59:56.306Z,16.38
2022-12-31T18:02:57.863Z,15.73
2022-12-31T18:05:59.715Z,16.23
2022-12-31T18:09:01.206Z,14.68
2022-12-31T18:12:05.830Z,14.37
2022-12-31T18:15:08.232Z,14.45
2022-12-31T18:18:27.703Z,13.48
2022-12-31T18:21:32.624Z,13.80
2022-12-31T18:24:34.829Z,12.90
2022-12-31T18:27:36.358Z,14.57
2022-12-31T18:30:38.169Z,19.48
2022-12-31T18:33:39.693Z,19.52
2022-12-31T18:36:41.881Z,20.27
2022-12-31T18:39:43.431Z,18.52
2022-12-31T18:42:45.109Z,12.77
2022-12-31T18:45:47.839Z,12.82
2022-12-31T18:48:49.427Z,12.15
2022-12-31T18:51:54.093Z,8.57
2022-12-31T18:54:55.625Z,7.03
2022-12-31T18:57:57.175Z,6.18
2022-12-31T19:00:58.812Z,5.60
2022-12-31T19:04:10.718Z,6.03
2022-12-31T19:07:12.279Z,6.60
2022-12-31T19:10:14.140Z,6.10
2022-12-31T19:13:17.563Z,8.03
2022-12-31T19:16:19.265Z,8.85
2022-12-31T19:19:21.436Z,9.77
2022-12-31T19:22:22.939Z,10.50
2022-12-31T19:25:33.684Z,12.57
2022-12-31T19:28:35.192Z,15.23
2022-12-31T19:31:36.856Z,15.63
2022-12-31T19:34:38.364Z,14.50
2022-12-31T19:37:41.360Z,13.18
2022-12-31T19:40:42.904Z,13.80
2022-12-31T19:43:45.562Z,12.27
2022-12-31T19:46:47.164Z,12.70
2022-12-31T19:49:48.713Z,12.25
2022-12-31T19:52:51.706Z,13.07
2022-12-31T19:55:53.968Z,14.13
2022-12-31T19:58:55.503Z,15.65
2022-12-31T20:01:57.201Z,18.98
2022-12-31T20:04:58.889Z,19.57
2022-12-31T20:08:00.449Z,23.27
2022-12-31T20:11:14.079Z,22.73
2022-12-31T20:14:15.656Z,21.03
2022-12-31T20:17:17.221Z,21.83
2022-12-31T20:20:18.784Z,20.17
2022-12-31T20:23:20.319Z,19.25
2022-12-31T20:26:23.489Z,20.20
2022-12-31T20:29:25.053Z,19.77
2022-12-31T20:32:26.576Z,18.75
2022-12-31T20:35:28.117Z,19.07
2022-12-31T20:38:29.884Z,17.48
2022-12-31T20:41:32.589Z,18.08
2022-12-31T20:44:34.279Z,19.10
2022-12-31T20:47:36.449Z,18.27
2022-12-31T20:50:37.970Z,18.38
2022-12-31T20:53:40.148Z,18.65
2022-12-31T20:56:42.319Z,20.83
2022-12-31T20:59:43.849Z,30.58
2022-12-31T21:02:51.515Z,39.45
2022-12-31T21:05:58.197Z,60.90
2022-12-31T21:09:01.922Z,74.63
2022-12-31T21:12:22.497Z,80.68
2022-12-31T21:15:24.127Z,77.73
2022-12-31T21:18:25.710Z,69.57
2022-12-31T21:21:27.426Z,56.13
2022-12-31T21:24:29.065Z,43.60
2022-12-31T21:27:30.960Z,36.00
2022-12-31T21:30:32.511Z,29.02
2022-12-31T21:33:34.891Z,23.17
2022-12-31T21:36:36.420Z,19.30
2022-12-31T21:39:38.010Z,17.63
2022-12-31T21:42:39.614Z,13.90
2022-12-31T21:45:41.785Z,13.13
2022-12-31T21:48:43.295Z,12.35
2022-12-31T21:52:03.440Z,12.48
2022-12-31T21:55:24.558Z,12.05
2022-12-31T21:58:28.000Z,11.13
2022-12-31T22:01:48.815Z,11.43
2022-12-31T22:05:14.839Z,11.25
2022-12-31T22:08:11.953Z,11.23
2022-12-31T22:11:14.917Z,13.80
2022-12-31T22:14:16.496Z,16.48
2022-12-31T22:17:18.042Z,15.40
2022-12-31T22:20:29.124Z,15.38
2022-12-31T22:23:31.750Z,14.48
2022-12-31T22:26:33.312Z,15.07
2022-12-31T22:29:34.838Z,14.15
2022-12-31T22:32:36.373Z,16.13
2022-12-31T22:35:37.926Z,17.15
2022-12-31T22:38:39.671Z,17.67
2022-12-31T22:41:41.687Z,17.65
2022-12-31T22:44:43.196Z,18.23
2022-12-31T22:47:44.726Z,18.07
2022-12-31T22:50:54.582Z,17.05
2022-12-31T22:53:56.095Z,14.82
2022-12-31T22:56:57.638Z,13.90
2022-12-31T22:59:59.174Z,12.50
2022-12-31T23:03:00.800Z,11.50
2022-12-31T23:06:02.569Z,173.10
2022-12-31T23:09:22.721Z,253.63
2022-12-31T23:12:24.446Z,264.27
2022-12-31T23:15:44.415Z,325.27
2022-12-31T23:19:05.735Z,324.17
2022-12-31T23:22:25.634Z,311.63
2022-12-31T23:25:27.222Z,285.65
2022-12-31T23:28:28.794Z,244.57
2022-12-31T23:31:30.606Z,218.75
2022-12-31T23:34:32.927Z,202.68
2022-12-31T23:37:34.507Z,208.93
2022-12-31T23:40:36.053Z,237.43
2022-12-31T23:43:37.550Z,274.08
2022-12-31T23:46:39.780Z,271.40
2022-12-31T23:49:41.344Z,215.57
2022-12-31T23:52:42.866Z,125.28
2022-12-31T23:55:44.454Z,126.47
2022-12-31T23:58:46.414Z,81.03
